createdAt,value
2023-03-20T00:00:31.518Z,99.90
2023-03-20T00:02:34.731Z,99.90
2023-03-20T00:04:39.629Z,99.90
2023-03-20T00:06:43.137Z,99.90
2023-03-20T00:08:46.952Z,99.90
2023-03-20T00:10:50.373Z,99.90
2023-03-20T00:13:58.011Z,99.90
2023-03-20T00:16:01.570Z,99.90
2023-03-20T00:18:05.216Z,99.90
2023-03-20T00:20:15.309Z,99.90
2023-03-20T00:22:19.597Z,99.90
2023-03-20T00:28:39.206Z,99.90
2023-03-20T00:30:42.652Z,99.90
2023-03-20T00:32:46.195Z,99.90
2023-03-20T00:35:52.322Z,99.90
2023-03-20T00:37:57.368Z,99.90
2023-03-20T00:40:00.761Z,99.90
2023-03-20T00:42:06.179Z,99.90
2023-03-20T00:44:19.288Z,99.90
2023-03-20T00:46:23.078Z,99.90
2023-03-20T00:51:52.455Z,99.90
2023-03-20T00:53:57.459Z,99.90
2023-03-20T00:56:00.969Z,99.90
2023-03-20T00:58:24.761Z,99.90
2023-03-20T01:00:39.005Z,99.90
2023-03-20T01:02:42.682Z,99.90
2023-03-20T01:04:46.295Z,99.90
2023-03-20T01:06:49.857Z,99.90
2023-03-20T01:08:53.270Z,99.90
2023-03-20T01:10:58.922Z,99.90
2023-03-20T01:13:41.700Z,99.90
2023-03-20T01:15:45.212Z,99.90
2023-03-20T01:17:48.757Z,99.90
2023-03-20T01:19:52.424Z,99.90
2023-03-20T01:21:55.851Z,99.90
2023-03-20T01:24:11.166Z,99.90
2023-03-20T01:26:35.445Z,99.90
2023-03-20T01:28:39.520Z,99.90
2023-03-20T01:30:43.258Z,99.90
2023-03-20T01:32:52.385Z,99.90
2023-03-20T01:34:55.726Z,99.90
2023-03-20T01:36:59.400Z,99.90
2023-03-20T01:39:02.958Z,99.90
2023-03-20T01:41:08.128Z,99.90
2023-03-20T01:43:15.968Z,99.90
2023-03-20T01:45:21.440Z,99.90
2023-03-20T01:47:58.988Z,99.90
2023-03-20T01:50:22.540Z,99.90
2023-03-20T01:52:26.101Z,99.90
2023-03-20T01:54:31.165Z,99.90
2023-03-20T01:56:36.257Z,99.90
2023-03-20T01:58:42.588Z,99.90
2023-03-20T02:07:18.254Z,99.90
2023-03-20T02:09:21.923Z,99.90
2023-03-20T02:11:25.500Z,99.90
2023-03-20T02:13:33.381Z,99.90
2023-03-20T02:15:53.091Z,99.90
2023-03-20T02:17:56.620Z,99.90
2023-03-20T02:20:08.206Z,99.90
2023-03-20T02:22:31.853Z,99.90
2023-03-20T02:25:19.838Z,99.90
2023-03-20T02:31:45.750Z,99.90
2023-03-20T02:34:25.533Z,99.90
2023-03-20T02:37:29.358Z,99.90
2023-03-20T02:39:53.185Z,99.90
2023-03-20T02:41:58.510Z,99.90
2023-03-20T02:44:05.024Z,99.90
2023-03-20T02:46:10.551Z,99.90
2023-03-20T02:48:17.552Z,99.90
2023-03-20T02:50:23.859Z,99.90
2023-03-20T02:52:32.630Z,99.90
2023-03-20T02:54:40.113Z,99.90
2023-03-20T02:56:59.279Z,99.90
2023-03-20T02:59:06.799Z,99.90
2023-03-20T03:01:12.132Z,99.90
2023-03-20T03:03:17.929Z,99.90
2023-03-20T03:05:22.819Z,99.90
2023-03-20T03:07:27.300Z,99.90
2023-03-20T03:09:32.356Z,99.90
2023-03-20T03:11:37.484Z,99.90
2023-03-20T03:13:44.370Z,99.90
2023-03-20T03:16:35.743Z,99.90
2023-03-20T03:18:39.393Z,99.90
2023-03-20T03:20:42.830Z,99.90
2023-03-20T03:22:53.195Z,99.90
2023-03-20T03:24:57.191Z,99.90
2023-03-20T03:29:03.977Z,99.90
2023-03-20T03:31:08.552Z,99.90
2023-03-20T03:33:17.165Z,99.90
2023-03-20T03:35:21.890Z,99.90
2023-03-20T03:37:59.936Z,99.90
2023-03-20T03:40:08.252Z,99.90
2023-03-20T03:42:15.976Z,99.90
2023-03-20T03:44:23.904Z,99.90
2023-03-20T03:46:30.861Z,99.90
2023-03-20T03:48:37.116Z,99.90
2023-03-20T03:51:12.512Z,99.90
2023-03-20T03:53:16.760Z,99.90
2023-03-20T03:55:22.246Z,99.90
2023-03-20T03:57:29.419Z,99.90
2023-03-20T03:59:57.372Z,99.90
2023-03-20T04:02:01.523Z,99.90
2023-03-20T04:04:07.210Z,99.90
2023-03-20T04:06:15.921Z,99.90
2023-03-20T04:08:19.388Z,99.90
2023-03-20T04:10:22.764Z,99.90
2023-03-20T04:26:24.522Z,99.90
2023-03-20T04:28:27.816Z,99.90
2023-03-20T04:30:31.161Z,99.90
2023-03-20T04:32:35.349Z,99.90
2023-03-20T04:34:57.885Z,99.90
2023-03-20T04:37:02.235Z,99.90
2023-03-20T04:39:06.388Z,99.90
2023-03-20T04:41:09.798Z,99.90
2023-03-20T04:43:16.364Z,99.90
2023-03-20T04:45:20.539Z,99.90
2023-03-20T04:47:24.194Z,99.90
2023-03-20T04:49:28.931Z,99.90
2023-03-20T04:51:54.243Z,99.90
2023-03-20T04:53:57.784Z,99.90
2023-03-20T04:56:02.186Z,99.90
2023-03-20T04:58:06.726Z,99.90
2023-03-20T05:00:12.837Z,99.90
2023-03-20T05:03:17.106Z,99.90
2023-03-20T05:05:20.546Z,99.90
2023-03-20T05:07:24.176Z,99.90
2023-03-20T05:09:31.080Z,99.90
2023-03-20T05:11:34.699Z,99.90
2023-03-20T05:14:28.195Z,99.90
2023-03-20T05:16:33.057Z,99.90
2023-03-20T05:18:36.897Z,99.90
2023-03-20T05:20:40.633Z,99.90
2023-03-20T05:22:44.282Z,99.90
2023-03-20T05:24:47.788Z,99.90
2023-03-20T05:27:19.376Z,99.90
2023-03-20T05:29:23.135Z,99.90
2023-03-20T05:31:26.789Z,99.90
2023-03-20T05:33:31.705Z,99.90
2023-03-20T05:35:36.231Z,99.90
2023-03-20T05:37:39.959Z,99.90
2023-03-20T05:39:43.493Z,99.90
2023-03-20T05:41:57.759Z,99.90
2023-03-20T05:44:01.674Z,99.90
2023-03-20T05:46:05.778Z,99.90
2023-03-20T05:48:10.098Z,99.90
2023-03-20T05:50:54.194Z,99.90
2023-03-20T05:52:59.164Z,99.90
2023-03-20T05:55:02.945Z,99.90
2023-03-20T05:57:07.088Z,99.90
2023-03-20T05:59:10.794Z,99.90
2023-03-20T06:01:44.733Z,99.90
2023-03-20T06:03:48.740Z,99.90
2023-03-20T06:05:52.412Z,99.90
2023-03-20T06:07:56.849Z,99.90
2023-03-20T06:10:02.477Z,99.90
2023-03-20T06:12:06.724Z,99.90
2023-03-20T06:14:10.568Z,99.90
2023-03-20T06:16:20.042Z,99.90
2023-03-20T06:18:23.975Z,99.90
2023-03-20T06:20:27.855Z,99.90
2023-03-20T06:22:31.461Z,99.90
2023-03-20T06:24:35.991Z,99.90
2023-03-20T06:27:11.409Z,99.90
2023-03-20T06:29:15.066Z,99.90
2023-03-20T06:31:18.803Z,99.90
2023-03-20T06:33:22.830Z,99.90
2023-03-20T06:35:30.988Z,99.90
2023-03-20T06:38:04.482Z,99.90
2023-03-20T06:40:10.980Z,99.90
2023-03-20T06:42:16.865Z,99.90
2023-03-20T06:44:20.632Z,99.90
2023-03-20T06:46:24.641Z,99.90
2023-03-20T06:48:28.137Z,99.90
2023-03-20T06:50:32.442Z,99.90
2023-03-20T06:52:36.195Z,99.90
2023-03-20T06:54:42.324Z,99.90
2023-03-20T06:56:45.942Z,99.90
2023-03-20T06:58:51.198Z,99.90
2023-03-20T07:00:55.485Z,99.90
2023-03-20T07:03:01.747Z,99.90
2023-03-20T07:05:06.308Z,99.90
2023-03-20T07:07:10.187Z,99.90
2023-03-20T07:09:13.817Z,99.90
2023-03-20T07:11:36.660Z,99.90
2023-03-20T07:13:40.240Z,99.90
2023-03-20T07:16:01.125Z,99.90
2023-03-20T07:18:07.070Z,99.90
2023-03-20T07:20:11.965Z,99.90
2023-03-20T07:22:19.637Z,99.90
2023-03-20T07:24:23.482Z,99.90
2023-03-20T07:26:29.837Z,99.90
2023-03-20T07:28:33.617Z,99.90
2023-03-20T07:30:37.139Z,99.90
2023-03-20T07:32:42.977Z,99.90
2023-03-20T07:34:47.806Z,99.90
2023-03-20T07:36:51.624Z,99.90
2023-03-20T07:38:55.714Z,99.90
2023-03-20T07:40:59.448Z,99.90
2023-03-20T07:43:03.894Z,99.90
2023-03-20T07:45:09.484Z,99.90
2023-03-20T07:47:13.541Z,99.90
2023-03-20T07:49:21.632Z,99.90
2023-03-20T07:51:42.314Z,99.90
2023-03-20T07:53:46.004Z,99.90
2023-03-20T07:55:49.692Z,99.90
2023-03-20T07:57:53.332Z,99.90
2023-03-20T07:59:57.060Z,99.90
2023-03-20T08:02:00.710Z,99.90
2023-03-20T08:04:04.720Z,99.90
2023-03-20T08:06:17.780Z,99.90
2023-03-20T08:08:21.699Z,99.90
2023-03-20T08:10:25.834Z,99.90
2023-03-20T08:12:30.581Z,99.90
2023-03-20T08:15:03.756Z,99.90
2023-03-20T08:17:14.958Z,99.90
2023-03-20T08:19:20.044Z,99.90
2023-03-20T08:21:25.414Z,99.90
2023-03-20T08:23:29.077Z,99.90
2023-03-20T08:25:33.857Z,99.90
2023-03-20T08:31:04.242Z,99.90
2023-03-20T08:33:08.098Z,99.90
2023-03-20T08:35:29.718Z,99.90
2023-03-20T08:37:38.345Z,99.90
2023-03-20T08:39:42.079Z,99.90
2023-03-20T08:41:46.493Z,99.90
2023-03-20T08:43:50.019Z,99.90
2023-03-20T08:45:54.671Z,99.90
2023-03-20T08:48:00.515Z,99.90
2023-03-20T08:50:04.632Z,99.90
2023-03-20T08:52:08.467Z,99.90
2023-03-20T08:54:15.333Z,99.90
2023-03-20T08:56:19.175Z,99.90
2023-03-20T08:58:23.034Z,99.90
2023-03-20T09:00:28.078Z,99.90
2023-03-20T09:02:31.987Z,99.90
2023-03-20T09:04:36.113Z,99.90
2023-03-20T09:07:08.695Z,99.90
2023-03-20T09:09:16.067Z,99.90
2023-03-20T09:11:19.846Z,99.90
2023-03-20T09:13:27.612Z,99.90
2023-03-20T09:15:31.432Z,99.90
2023-03-20T09:17:36.974Z,99.90
2023-03-20T09:19:44.505Z,99.90
2023-03-20T09:21:49.142Z,99.90
2023-03-20T09:23:53.344Z,99.90
2023-03-20T09:25:58.630Z,99.90
2023-03-20T09:28:02.384Z,99.90
2023-03-20T09:30:07.398Z,99.90
2023-03-20T09:32:12.026Z,99.90
2023-03-20T09:34:15.772Z,99.90
2023-03-20T09:36:19.632Z,99.90
2023-03-20T09:38:29.322Z,99.90
2023-03-20T09:40:35.294Z,99.90
2023-03-20T09:42:46.255Z,99.90
2023-03-20T09:44:55.193Z,99.90
2023-03-20T09:47:19.779Z,99.90
2023-03-20T09:49:30.090Z,99.90
2023-03-20T09:51:36.677Z,99.90
2023-03-20T09:53:42.136Z,99.90
2023-03-20T09:55:45.936Z,99.90
2023-03-20T09:57:55.234Z,99.90
2023-03-20T10:00:00.806Z,99.90
2023-03-20T10:02:08.073Z,99.90
2023-03-20T10:04:12.223Z,99.90
2023-03-20T10:06:17.069Z,99.90
2023-03-20T10:08:25.975Z,99.90
2023-03-20T10:10:32.841Z,99.90
2023-03-20T10:12:48.984Z,99.90
2023-03-20T10:15:00.152Z,99.90
2023-03-20T10:17:10.878Z,99.90
2023-03-20T10:19:19.330Z,99.90
2023-03-20T10:21:24.344Z,99.90
2023-03-20T10:23:32.561Z,99.90
2023-03-20T10:25:37.863Z,99.90
2023-03-20T10:27:42.184Z,99.90
2023-03-20T10:29:50.548Z,99.90
2023-03-20T10:31:58.843Z,99.90
2023-03-20T10:34:16.875Z,99.90
2023-03-20T10:36:30.035Z,99.90
2023-03-20T10:38:36.771Z,99.90
2023-03-20T10:40:47.666Z,99.90
2023-03-20T10:42:51.598Z,99.90
2023-03-20T10:44:58.197Z,99.90
2023-03-20T10:47:03.550Z,99.90
2023-03-20T10:49:08.947Z,99.90
2023-03-20T10:51:15.184Z,99.90
2023-03-20T10:53:25.819Z,99.90
2023-03-20T10:55:31.843Z,99.90
2023-03-20T10:57:38.269Z,99.90
2023-03-20T10:59:43.802Z,99.90
2023-03-20T11:01:47.497Z,99.90
2023-03-20T11:03:52.766Z,99.90
2023-03-20T11:06:09.333Z,99.90
2023-03-20T11:08:15.431Z,99.90
2023-03-20T11:10:19.260Z,99.90
2023-03-20T11:12:22.706Z,99.90
2023-03-20T11:14:29.220Z,99.90
2023-03-20T11:16:34.116Z,99.90
2023-03-20T11:18:38.071Z,99.90
2023-03-20T11:20:46.962Z,99.90
2023-03-20T11:22:50.932Z,99.90
2023-03-20T11:24:55.599Z,99.90
2023-03-20T11:27:07.350Z,99.90
2023-03-20T11:29:14.983Z,99.90
2023-03-20T11:31:19.907Z,99.90
2023-03-20T11:33:23.709Z,99.90
2023-03-20T11:35:31.200Z,99.90
2023-03-20T11:37:37.137Z,99.90
2023-03-20T11:39:45.227Z,99.90
2023-03-20T11:41:51.641Z,99.90
2023-03-20T11:43:55.161Z,99.90
2023-03-20T11:45:59.834Z,99.90
2023-03-20T11:48:04.126Z,99.90
2023-03-20T11:50:08.772Z,99.90
2023-03-20T11:52:14.041Z,99.90
2023-03-20T11:54:20.553Z,99.90
2023-03-20T11:56:25.538Z,99.90
2023-03-20T11:58:30.975Z,99.90
2023-03-20T12:00:38.105Z,99.90
2023-03-20T12:02:42.768Z,99.90
2023-03-20T12:04:47.906Z,99.90
2023-03-20T12:06:54.309Z,99.90
2023-03-20T12:09:01.880Z,99.90
2023-03-20T12:11:19.203Z,99.90
2023-03-20T12:13:24.309Z,99.90
2023-03-20T12:15:29.240Z,99.90
2023-03-20T12:17:37.014Z,99.90
2023-03-20T12:19:40.540Z,99.90
2023-03-20T12:21:48.270Z,99.90
2023-03-20T12:23:54.483Z,99.90
2023-03-20T12:25:59.748Z,99.90
2023-03-20T12:28:07.084Z,99.90
2023-03-20T12:30:15.293Z,99.90
2023-03-20T12:32:20.779Z,99.90
2023-03-20T12:34:25.748Z,99.90
2023-03-20T12:36:33.128Z,99.90
2023-03-20T12:38:37.186Z,99.90
2023-03-20T12:40:43.683Z,99.90
2023-03-20T12:42:54.096Z,99.90
2023-03-20T12:45:01.132Z,99.90
2023-03-20T12:47:33.118Z,99.90
2023-03-20T12:49:43.240Z,99.90
2023-03-20T12:51:53.547Z,99.90
2023-03-20T12:54:03.202Z,99.90
2023-03-20T12:56:15.597Z,99.90
2023-03-20T12:58:36.551Z,99.90
2023-03-20T13:00:49.943Z,99.90
2023-03-20T13:03:15.051Z,99.90
2023-03-20T13:05:53.388Z,99.90
2023-03-20T13:08:10.695Z,99.90
2023-03-20T13:10:17.737Z,99.90
2023-03-20T13:12:27.494Z,99.90
2023-03-20T13:14:38.907Z,99.90
2023-03-20T13:16:48.608Z,99.90
2023-03-20T13:18:56.299Z,99.90
2023-03-20T13:20:59.686Z,99.90
2023-03-20T13:23:16.461Z,99.90
2023-03-20T13:25:26.494Z,99.90
2023-03-20T13:27:34.235Z,99.90
2023-03-20T13:29:43.401Z,99.90
2023-03-20T13:31:54.475Z,99.90
2023-03-20T13:33:59.614Z,99.90
2023-03-20T13:36:05.046Z,99.90
2023-03-20T13:38:13.230Z,99.90
2023-03-20T13:40:20.509Z,99.90
2023-03-20T13:42:24.523Z,99.90
2023-03-20T13:44:29.214Z,99.90
2023-03-20T13:46:35.639Z,99.90
2023-03-20T13:48:40.759Z,99.90
2023-03-20T13:50:47.774Z,99.90
2023-03-20T13:52:53.679Z,99.90
2023-03-20T13:55:16.226Z,99.90
2023-03-20T13:57:26.132Z,99.90
2023-03-20T13:59:58.052Z,99.90
2023-03-20T14:02:02.457Z,99.90
2023-03-20T14:04:08.822Z,99.90
2023-03-20T14:06:44.464Z,99.90
2023-03-20T14:08:51.260Z,99.90
2023-03-20T14:11:05.553Z,99.90
2023-03-20T14:13:14.093Z,99.90
2023-03-20T14:15:23.377Z,99.90
2023-03-20T14:17:27.275Z,99.90
2023-03-20T14:19:32.258Z,99.90
2023-03-20T14:21:36.539Z,99.90
2023-03-20T14:23:47.077Z,99.90
2023-03-20T14:25:50.463Z,99.90
2023-03-20T14:27:57.970Z,99.90
2023-03-20T14:30:03.101Z,99.90
2023-03-20T14:32:31.316Z,99.90
2023-03-20T14:34:48.306Z,99.90
2023-03-20T14:36:59.007Z,99.90
2023-03-20T14:39:14.203Z,99.90
2023-03-20T14:41:18.760Z,99.90
2023-03-20T14:43:29.443Z,99.90
2023-03-20T14:45:43.483Z,99.90
2023-03-20T14:47:50.540Z,99.90
2023-03-20T14:49:57.155Z,99.90
2023-03-20T14:52:02.656Z,99.90
2023-03-20T14:54:28.277Z,99.90
2023-03-20T14:56:35.375Z,99.90
2023-03-20T14:58:57.338Z,99.90
2023-03-20T15:01:03.693Z,99.90
2023-03-20T15:03:09.092Z,99.90
2023-03-20T15:05:25.109Z,99.90
2023-03-20T15:07:29.934Z,99.90
2023-03-20T15:09:34.934Z,99.90
2023-03-20T15:11:38.476Z,99.90
2023-03-20T15:13:42.820Z,99.90
2023-03-20T15:15:54.600Z,99.90
2023-03-20T15:18:04.158Z,99.90
2023-03-20T15:20:12.629Z,99.90
2023-03-20T15:22:19.135Z,99.90
2023-03-20T15:24:23.952Z,99.90
2023-03-20T15:26:27.760Z,99.90
2023-03-20T15:28:33.121Z,99.90
2023-03-20T15:30:43.723Z,99.90
2023-03-20T15:32:48.027Z,99.90
2023-03-20T15:34:52.090Z,99.80
2023-03-20T15:36:57.638Z,99.90
2023-03-20T15:39:11.446Z,99.90
2023-03-20T15:41:26.462Z,99.90
2023-03-20T15:43:30.564Z,99.70
2023-03-20T15:45:38.588Z,99.60
2023-03-20T15:47:44.193Z,99.90
2023-03-20T15:49:51.625Z,98.60
2023-03-20T15:51:56.040Z,98.00
2023-03-20T15:54:00.486Z,98.20
2023-03-20T15:56:17.616Z,98.10
2023-03-20T15:58:28.508Z,97.70
2023-03-20T16:00:33.170Z,97.10
2023-03-20T16:02:37.697Z,97.50
2023-03-20T16:04:45.529Z,97.30
2023-03-20T16:06:49.915Z,97.30
2023-03-20T16:09:00.819Z,97.50
2023-03-20T16:11:07.534Z,97.60
2023-03-20T16:13:13.109Z,97.60
2023-03-20T16:15:19.860Z,97.70
2023-03-20T16:17:23.779Z,97.50
2023-03-20T16:20:37.462Z,96.60
2023-03-20T16:22:47.967Z,96.70
2023-03-20T16:24:52.532Z,97.70
2023-03-20T16:26:57.628Z,98.10
2023-03-20T16:29:02.858Z,98.70
2023-03-20T16:31:10.346Z,99.00
2023-03-20T16:33:15.720Z,99.10
2023-03-20T16:35:20.499Z,98.90
2023-03-20T16:37:26.704Z,98.60
2023-03-20T16:39:31.041Z,97.90
2023-03-20T16:41:35.164Z,97.40
2023-03-20T16:43:50.947Z,97.20
2023-03-20T16:45:55.146Z,97.20
2023-03-20T16:48:27.777Z,97.30
2023-03-20T16:50:35.912Z,97.10
2023-03-20T16:52:40.920Z,96.90
2023-03-20T16:54:44.561Z,96.80
2023-03-20T16:56:51.091Z,97.00
2023-03-20T16:58:57.011Z,97.20
2023-03-20T17:01:02.829Z,96.60
2023-03-20T17:03:14.986Z,96.80
2023-03-20T17:05:19.824Z,96.80
2023-03-20T17:07:28.083Z,96.90
2023-03-20T17:09:31.815Z,97.10
2023-03-20T17:11:36.317Z,97.20
2023-03-20T17:13:40.179Z,97.50
2023-03-20T17:15:45.291Z,97.90
2023-03-20T17:17:48.756Z,98.10
2023-03-20T17:19:53.395Z,98.20
2023-03-20T17:21:57.856Z,98.60
2023-03-20T17:24:01.818Z,98.70
2023-03-20T17:26:06.012Z,99.10
2023-03-20T17:28:20.106Z,99.10
2023-03-20T17:30:25.196Z,99.20
2023-03-20T17:32:30.441Z,99.60
2023-03-20T17:34:34.262Z,99.70
2023-03-20T17:36:38.628Z,99.70
2023-03-20T17:39:13.239Z,99.60
2023-03-20T17:41:17.142Z,99.80
2023-03-20T17:43:21.207Z,99.90
2023-03-20T17:45:25.278Z,99.90
2023-03-20T17:47:30.462Z,99.90
2023-03-20T17:49:34.357Z,99.90
2023-03-20T17:51:39.350Z,99.90
2023-03-20T17:53:43.849Z,99.90
2023-03-20T17:55:47.355Z,99.90
2023-03-20T17:57:50.891Z,99.90
2023-03-20T17:59:54.561Z,99.90
2023-03-20T18:01:58.475Z,99.90
2023-03-20T18:04:03.720Z,99.90
2023-03-20T18:06:07.535Z,99.90
2023-03-20T18:08:14.217Z,99.90
2023-03-20T18:10:21.877Z,99.90
2023-03-20T18:12:25.479Z,99.90
2023-03-20T18:14:29.004Z,99.90
2023-03-20T18:16:32.774Z,99.90
2023-03-20T18:18:36.418Z,99.90
2023-03-20T18:20:46.570Z,99.90
2023-03-20T18:22:50.341Z,99.90
2023-03-20T18:24:54.217Z,99.90
2023-03-20T18:26:59.082Z,99.90
2023-03-20T18:29:02.738Z,99.90
2023-03-20T18:31:06.816Z,99.90
2023-03-20T18:33:10.608Z,99.90
2023-03-20T18:35:14.483Z,99.90
2023-03-20T18:37:22.077Z,99.90
2023-03-20T18:39:27.599Z,99.90
2023-03-20T18:41:31.128Z,99.90
2023-03-20T18:43:34.687Z,99.90
2023-03-20T18:45:39.792Z,99.90
2023-03-20T18:47:43.406Z,99.90
2023-03-20T18:49:58.599Z,99.90
2023-03-20T18:52:03.905Z,99.90
2023-03-20T18:54:09.796Z,99.90
2023-03-20T18:56:15.472Z,99.90
2023-03-20T18:58:22.713Z,99.90
2023-03-20T19:00:27.365Z,99.90
2023-03-20T19:14:07.706Z,99.90
2023-03-20T19:16:18.954Z,99.90
2023-03-20T19:18:23.271Z,99.90
2023-03-20T19:20:40.458Z,99.90
2023-03-20T19:22:44.025Z,99.90
2023-03-20T19:24:47.326Z,99.90
2023-03-20T19:26:50.922Z,99.90
2023-03-20T19:28:54.846Z,99.90
2023-03-20T19:31:01.208Z,99.90
2023-03-20T19:33:04.975Z,99.90
2023-03-20T19:35:50.533Z,99.90
2023-03-20T19:37:33.749Z,99.90
2023-03-20T19:39:37.479Z,99.90
2023-03-20T19:42:15.381Z,99.90
2023-03-20T19:44:23.593Z,99.90
2023-03-20T19:46:39.601Z,99.90
2023-03-20T19:48:50.539Z,99.90
2023-03-20T19:50:55.290Z,99.90
2023-03-20T19:52:59.129Z,99.90
2023-03-20T19:55:03.744Z,99.90
2023-03-20T19:57:07.382Z,99.90
2023-03-20T19:59:12.017Z,99.90
2023-03-20T20:01:18.367Z,99.90
2023-03-20T20:03:24.046Z,99.90
2023-03-20T20:05:29.557Z,99.90
2023-03-20T20:08:09.123Z,99.90
2023-03-20T20:09:58.792Z,99.90
2023-03-20T20:12:04.313Z,99.90
2023-03-20T20:14:09.779Z,99.90
2023-03-20T20:16:14.147Z,99.90
2023-03-20T20:18:17.773Z,99.90
2023-03-20T20:22:26.447Z,99.90
2023-03-20T20:24:30.730Z,99.90
2023-03-20T20:26:38.730Z,99.90
2023-03-20T20:28:44.677Z,99.90
2023-03-20T20:30:48.792Z,99.90
2023-03-20T20:32:52.559Z,99.90
2023-03-20T20:40:05.136Z,99.90
2023-03-20T20:42:08.819Z,99.90
2023-03-20T20:44:16.548Z,99.90
2023-03-20T20:46:23.288Z,99.90
2023-03-20T20:48:27.034Z,99.90
2023-03-20T20:50:31.997Z,99.90
2023-03-20T20:52:39.155Z,99.90
2023-03-20T20:54:44.386Z,99.90
2023-03-20T20:56:48.107Z,99.90
2023-03-20T20:58:51.510Z,99.90
2023-03-20T21:01:02.405Z,99.90
2023-03-20T21:03:06.212Z,99.90
2023-03-20T21:05:10.326Z,99.90
2023-03-20T21:07:14.050Z,99.90
2023-03-20T21:09:24.647Z,99.90
2023-03-20T21:11:28.744Z,99.90
2023-03-20T21:15:32.614Z,99.90
2023-03-20T21:17:53.807Z,99.90
2023-03-20T21:20:05.955Z,99.90
2023-03-20T21:22:09.907Z,99.90
2023-03-20T21:24:31.002Z,99.90
2023-03-20T21:26:37.619Z,99.90
2023-03-20T21:28:41.153Z,99.90
2023-03-20T21:31:08.970Z,99.90
2023-03-20T21:33:07.763Z,99.90
2023-03-20T21:35:12.911Z,99.90
2023-03-20T21:38:13.225Z,99.90
2023-03-20T21:39:39.920Z,99.90
2023-03-20T21:41:44.951Z,99.90
2023-03-20T21:43:48.252Z,99.90
2023-03-20T21:46:35.189Z,99.90
2023-03-20T21:49:12.555Z,99.90
2023-03-20T21:51:20.417Z,99.90
2023-03-20T22:01:04.229Z,99.90
2023-03-20T22:02:38.906Z,99.90
2023-03-20T22:12:38.438Z,99.90
2023-03-20T22:15:11.968Z,99.90
2023-03-20T22:29:35.827Z,99.90
2023-03-20T22:36:46.839Z,99.90
2023-03-20T22:39:05.209Z,99.90
2023-03-20T22:41:41.615Z,99.90
2023-03-20T22:45:42.295Z,99.90
2023-03-20T22:47:47.662Z,99.90
2023-03-20T22:49:56.849Z,99.90
2023-03-20T22:52:15.343Z,99.90
2023-03-20T22:54:24.022Z,99.90
2023-03-20T22:56:27.349Z,99.90
2023-03-20T22:58:31.050Z,99.90
2023-03-20T23:00:35.006Z,99.90
2023-03-20T23:02:38.681Z,99.90
2023-03-20T23:05:16.821Z,99.90
2023-03-20T23:07:20.272Z,99.90
2023-03-20T23:09:23.908Z,99.90
2023-03-20T23:11:28.171Z,99.90
2023-03-20T23:13:31.667Z,99.90
2023-03-20T23:15:35.510Z,99.90
2023-03-20T23:17:39.814Z,99.90
2023-03-20T23:19:50.513Z,99.90
2023-03-20T23:22:01.432Z,99.90
2023-03-20T23:24:05.007Z,99.90
2023-03-20T23:26:08.952Z,99.90
2023-03-20T23:28:12.574Z,99.90
2023-03-20T23:30:20.654Z,99.90
2023-03-20T23:32:24.060Z,99.90
2023-03-20T23:40:47.022Z,99.90
2023-03-20T23:42:56.162Z,99.90
2023-03-20T23:45:19.261Z,99.90
2023-03-20T23:47:25.706Z,99.90
2023-03-20T23:49:45.913Z,99.90
2023-03-20T23:51:49.407Z,99.90
2023-03-20T23:53:56.092Z,99.90
2023-03-20T23:55:59.957Z,99.90
2023-03-20T23:58:04.904Z,99.90
